Time;durP1;ratioP1;P1;durP2;ratioP2;P2;SDS_P1;SDS_P2;PMS_P1;PMS_P2;Temp;Humidity;BMP_temperature;BMP_pressure;BME280_temperature;BME280_humidity;BME280_pressure;Samples;Min_cycle;Max_cycle;Signal;HPM_P1;HPM_P2
2022/09/17 00:00:40;;;;;;;16.52;2.70;;;12.10;99.90;;;;;;5018341;28;20050;-72
2022/09/17 00:03:07;;;;;;;13.48;2.63;;;12.10;99.90;;;;;;5016659;28;20045;-72
2022/09/17 00:05:36;;;;;;;13.65;2.90;;;12.00;99.90;;;;;;5012185;28;20045;-72
2022/09/17 00:08:03;;;;;;;16.00;3.55;;;12.00;99.90;;;;;;5011569;28;20040;-73
2022/09/17 00:10:30;;;;;;;14.27;2.47;;;12.00;99.90;;;;;;5003220;28;20041;-73
2022/09/17 00:12:58;;;;;;;12.23;2.53;;;12.10;99.90;;;;;;5012775;28;20132;-72
2022/09/17 00:15:24;;;;;;;18.67;3.20;;;12.30;99.90;;;;;;5006130;28;20045;-74
2022/09/17 00:17:56;;;;;;;11.02;2.80;;;12.10;99.90;;;;;;5022425;28;20424;-73
2022/09/17 00:20:22;;;;;;;17.42;2.70;;;12.10;99.90;;;;;;5021284;28;20045;-73
2022/09/17 00:22:56;;;;;;;17.73;3.22;;;12.10;99.90;;;;;;5004723;28;20034;-72
2022/09/17 00:25:22;;;;;;;17.55;2.97;;;12.10;99.90;;;;;;5016674;28;20033;-72
2022/09/17 00:27:48;;;;;;;14.10;3.35;;;12.20;99.90;;;;;;5021327;28;20033;-73
2022/09/17 00:30:14;;;;;;;11.68;2.33;;;12.20;99.90;;;;;;5014552;28;20060;-73
2022/09/17 00:32:39;;;;;;;14.73;2.80;;;12.20;99.90;;;;;;4997156;28;20560;-72
2022/09/17 00:35:06;;;;;;;14.82;2.88;;;12.20;99.90;;;;;;5021124;28;20703;-72
2022/09/17 00:37:34;;;;;;;15.52;3.50;;;12.20;99.90;;;;;;5015150;28;20040;-73
2022/09/17 00:40:08;;;;;;;12.73;3.15;;;12.10;99.90;;;;;;4990035;28;20034;-72
2022/09/17 00:42:34;;;;;;;11.73;2.30;;;12.00;99.90;;;;;;5022567;28;20622;-73
2022/09/17 00:45:00;;;;;;;15.15;3.33;;;11.90;99.90;;;;;;5018486;28;20298;-73
2022/09/17 00:47:31;;;;;;;10.85;2.40;;;11.80;99.90;;;;;;5010595;28;20120;-73
2022/09/17 00:50:05;;;;;;;14.13;2.60;;;11.80;99.90;;;;;;5015397;28;20052;-73
2022/09/17 00:52:57;;;;;;;14.45;2.80;;;11.70;99.90;;;;;;5022340;28;20040;-73
2022/09/17 00:55:42;;;;;;;11.45;2.58;;;11.70;99.90;;;;;;4993494;28;20172;-73
2022/09/17 00:58:10;;;;;;;15.02;2.72;;;11.60;99.90;;;;;;5017560;28;20134;-72
2022/09/17 01:00:37;;;;;;;14.18;3.33;;;11.60;99.90;;;;;;5018282;28;20045;-72
2022/09/17 01:03:02;;;;;;;18.70;2.78;;;11.70;99.90;;;;;;5012235;28;20034;-71
2022/09/17 01:05:54;;;;;;;14.60;3.30;;;11.60;99.90;;;;;;5021067;28;20109;-72
2022/09/17 01:08:20;;;;;;;18.27;2.70;;;11.70;99.90;;;;;;5021322;28;20069;-73
2022/09/17 01:10:46;;;;;;;16.17;3.10;;;;;;;;;;5017437;28;20554;-73
2022/09/17 01:13:36;;;;;;;14.68;3.05;;;11.70;99.90;;;;;;5016806;28;20053;-73
2022/09/17 01:16:39;;;;;;;16.50;2.90;;;11.70;99.90;;;;;;5001213;28;20050;-73
2022/09/17 01:19:27;;;;;;;16.40;3.03;;;11.70;99.90;;;;;;5002428;28;20116;-73
2022/09/17 01:22:00;;;;;;;14.57;2.90;;;11.70;99.90;;;;;;5015853;28;20528;-72
2022/09/17 01:24:42;;;;;;;12.65;2.50;;;11.60;99.90;;;;;;5021469;28;20029;-73
2022/09/17 01:27:38;;;;;;;16.73;2.70;;;11.60;99.90;;;;;;5027060;28;20120;-73
2022/09/17 01:30:31;;;;;;;14.68;2.90;;;11.70;99.90;;;;;;5013310;28;20044;-73
2022/09/17 01:32:59;;;;;;;11.68;2.85;;;11.60;99.90;;;;;;5022834;28;20037;-72
2022/09/17 01:35:52;;;;;;;15.82;3.08;;;11.60;99.90;;;;;;5017267;28;20034;-73
2022/09/17 01:38:44;;;;;;;17.30;3.28;;;11.60;99.90;;;;;;5023561;28;20045;-73
2022/09/17 01:41:38;;;;;;;17.00;3.00;;;11.60;99.90;;;;;;5020172;28;20045;-72
2022/09/17 01:44:35;;;;;;;14.15;2.67;;;11.70;99.90;;;;;;5013095;28;20041;-72
2022/09/17 01:47:38;;;;;;;15.77;3.17;;;11.70;99.90;;;;;;5027075;28;20114;-73
2022/09/17 01:50:09;;;;;;;16.15;3.42;;;11.80;99.90;;;;;;5031057;28;20116;-73
2022/09/17 01:52:39;;;;;;;12.85;3.05;;;11.80;99.90;;;;;;5026665;28;20046;-73
2022/09/17 01:55:10;;;;;;;15.45;3.42;;;11.90;99.90;;;;;;5029184;28;20034;-72
2022/09/17 01:57:46;;;;;;;15.45;3.30;;;11.90;99.90;;;;;;5029714;28;20081;-73
2022/09/17 02:00:15;;;;;;;18.77;3.40;;;12.00;99.90;;;;;;5028772;28;20041;-73
2022/09/17 02:02:50;;;;;;;15.85;3.17;;;12.00;99.90;;;;;;5016549;28;20594;-72
2022/09/17 02:05:25;;;;;;;17.30;3.72;;;12.00;99.90;;;;;;5024272;28;20470;-72
2022/09/17 02:07:56;;;;;;;15.90;3.47;;;12.00;99.90;;;;;;5016811;28;20033;-73
2022/09/17 02:10:36;;;;;;;16.17;3.42;;;12.20;99.90;;;;;;4996835;28;20042;-73
2022/09/17 02:13:12;;;;;;;16.35;3.30;;;12.00;99.90;;;;;;5013999;28;20107;-72
2022/09/17 02:15:50;;;;;;;18.25;3.05;;;11.90;99.90;;;;;;5011008;28;20033;-74
2022/09/17 02:18:24;;;;;;;12.68;2.75;;;11.90;99.90;;;;;;5010642;28;20077;-73
2022/09/17 02:20:55;;;;;;;14.82;2.83;;;11.80;99.90;;;;;;5000668;28;20041;-72
2022/09/17 02:23:30;;;;;;;20.58;2.90;;;11.70;99.90;;;;;;5020748;28;20094;-73
2022/09/17 02:26:08;;;;;;;14.95;2.67;;;11.70;99.90;;;;;;5022293;28;20103;-73
2022/09/17 02:28:43;;;;;;;9.90;2.08;;;11.70;99.90;;;;;;5000956;28;20034;-72
2022/09/17 02:31:10;;;;;;;12.73;2.58;;;11.60;99.90;;;;;;5012787;28;20140;-73
2022/09/17 02:33:39;;;;;;;13.88;2.95;;;11.60;99.90;;;;;;5012344;28;20041;-72
2022/09/17 02:36:05;;;;;;;12.85;2.83;;;11.60;99.90;;;;;;5025201;28;20133;-72
2022/09/17 02:38:31;;;;;;;12.10;2.60;;;11.60;99.90;;;;;;5022212;28;20037;-73
2022/09/17 02:41:10;;;;;;;16.27;2.67;;;11.60;99.90;;;;;;5023045;28;20049;-73
2022/09/17 02:44:19;;;;;;;12.48;2.22;;;11.60;99.90;;;;;;5019773;28;20068;-72
2022/09/17 02:47:00;;;;;;;13.77;2.88;;;11.60;99.90;;;;;;5023598;28;20575;-72
2022/09/17 02:50:00;;;;;;;14.60;3.08;;;11.60;99.90;;;;;;5011182;28;20052;-73
2022/09/17 02:52:26;;;;;;;12.95;2.80;;;11.60;99.90;;;;;;5023748;28;20436;-73
2022/09/17 02:55:23;;;;;;;16.55;3.28;;;11.60;99.90;;;;;;5022874;28;20033;-73
2022/09/17 02:57:55;;;;;;;15.27;3.55;;;11.60;99.90;;;;;;5023440;28;20049;-73
2022/09/17 03:00:22;;;;;;;13.53;2.53;;;11.80;99.90;;;;;;5018974;28;20522;-73
2022/09/17 03:02:56;;;;;;;15.93;2.95;;;11.60;99.90;;;;;;5011257;28;20038;-73
2022/09/17 03:05:24;;;;;;;15.85;2.97;;;11.50;99.90;;;;;;5021063;28;20244;-74
2022/09/17 03:07:49;;;;;;;13.68;2.78;;;11.40;99.90;;;;;;5017694;28;20484;-72
2022/09/17 03:10:16;;;;;;;15.50;3.15;;;11.40;99.90;;;;;;5017554;28;20049;-73
2022/09/17 03:12:42;;;;;;;12.45;2.92;;;11.30;99.90;;;;;;5021151;28;20096;-73
2022/09/17 03:15:09;;;;;;;15.95;3.05;;;11.30;99.90;;;;;;5018875;28;20219;-73
2022/09/17 03:17:35;;;;;;;13.20;2.65;;;11.30;99.90;;;;;;5022228;28;20037;-73
2022/09/17 03:20:01;;;;;;;11.45;2.38;;;11.30;99.90;;;;;;5031739;28;20480;-73
2022/09/17 03:22:26;;;;;;;20.35;3.25;;;11.20;99.90;;;;;;5003452;28;20049;-73
2022/09/17 03:24:52;;;;;;;14.25;3.10;;;11.20;99.90;;;;;;5020935;28;20050;-73
2022/09/17 03:27:18;;;;;;;13.60;2.92;;;11.10;99.90;;;;;;5017855;28;20480;-73
2022/09/17 03:29:44;;;;;;;14.48;2.83;;;11.10;99.90;;;;;;5008771;28;20042;-72
2022/09/17 03:32:10;;;;;;;13.88;2.90;;;;;;;;;;5016593;28;20041;-73
2022/09/17 03:34:35;;;;;;;14.32;3.00;;;11.10;99.90;;;;;;5023769;28;20049;-74
2022/09/17 03:37:01;;;;;;;14.43;2.95;;;11.00;99.90;;;;;;5018508;28;20090;-73
2022/09/17 03:39:28;;;;;;;13.52;3.00;;;11.10;99.90;;;;;;5007553;28;20338;-74
2022/09/17 03:41:54;;;;;;;12.98;2.67;;;11.00;99.90;;;;;;5014316;28;20125;-72
2022/09/17 03:44:21;;;;;;;15.98;3.13;;;11.10;99.90;;;;;;4987459;28;20472;-73
2022/09/17 03:46:47;;;;;;;14.80;3.08;;;11.10;99.90;;;;;;5025166;28;20041;-74
2022/09/17 03:49:13;;;;;;;16.83;2.63;;;11.10;99.90;;;;;;5028039;28;20040;-73
2022/09/17 03:51:38;;;;;;;14.57;2.75;;;11.10;99.90;;;;;;4992566;28;20544;-74
2022/09/17 03:54:05;;;;;;;15.90;3.35;;;11.20;99.90;;;;;;5023877;28;20041;-73
2022/09/17 03:56:30;;;;;;;14.02;3.10;;;11.20;99.90;;;;;;5012240;28;20054;-72
2022/09/17 03:58:58;;;;;;;10.13;2.17;;;11.20;99.90;;;;;;5027875;28;20095;-73
2022/09/17 04:01:24;;;;;;;11.75;2.45;;;11.20;99.90;;;;;;5029997;28;20403;-73
2022/09/17 04:03:50;;;;;;;13.10;2.50;;;11.10;99.90;;;;;;5004065;28;20029;-73
2022/09/17 04:06:15;;;;;;;13.07;2.25;;;11.10;99.90;;;;;;4994762;28;20137;-73
2022/09/17 04:08:42;;;;;;;11.75;2.03;;;11.10;99.90;;;;;;4990579;28;20065;-74
2022/09/17 04:11:08;;;;;;;14.73;2.67;;;11.60;99.90;;;;;;4995464;28;20050;-73
2022/09/17 04:13:35;;;;;;;10.07;2.15;;;11.20;99.90;;;;;;4976689;28;20121;-72
2022/09/17 04:16:01;;;;;;;13.20;2.70;;;11.20;99.90;;;;;;5021337;28;20458;-73
2022/09/17 04:18:27;;;;;;;11.48;2.78;;;11.30;99.90;;;;;;5017908;28;20471;-73
2022/09/17 04:20:53;;;;;;;12.68;2.47;;;11.30;99.90;;;;;;5023080;28;20061;-73
2022/09/17 04:23:19;;;;;;;13.77;2.40;;;11.30;99.90;;;;;;5009395;28;20030;-73
2022/09/17 04:25:45;;;;;;;15.07;2.55;;;11.20;99.90;;;;;;5018283;28;20514;-72
2022/09/17 04:28:17;;;;;;;12.85;2.65;;;11.20;99.90;;;;;;4999150;28;20045;-73
2022/09/17 04:30:43;;;;;;;13.30;3.30;;;12.00;99.90;;;;;;5021736;28;20041;-72
2022/09/17 04:33:09;;;;;;;15.05;2.40;;;11.20;99.90;;;;;;5022219;28;20033;-72
2022/09/17 04:35:35;;;;;;;10.77;2.40;;;11.20;99.90;;;;;;4994551;28;20061;-72
2022/09/17 04:38:01;;;;;;;14.02;2.95;;;11.10;99.90;;;;;;5012735;28;20053;-73
2022/09/17 04:40:27;;;;;;;10.02;2.13;;;11.10;99.90;;;;;;5018750;28;20037;-73
2022/09/17 04:42:58;;;;;;;14.77;2.22;;;11.10;99.90;;;;;;4996411;28;20030;-73
2022/09/17 04:45:25;;;;;;;14.02;2.40;;;11.10;99.90;;;;;;4993821;28;20112;-74
2022/09/17 04:47:54;;;;;;;14.98;2.83;;;11.10;99.90;;;;;;5021394;28;20138;-73
2022/09/17 04:50:20;;;;;;;12.43;2.45;;;11.00;99.90;;;;;;5006542;28;20751;-74
2022/09/17 04:52:46;;;;;;;14.82;2.45;;;11.00;99.90;;;;;;5019455;28;20051;-72
2022/09/17 04:55:13;;;;;;;11.00;2.50;;;11.00;99.90;;;;;;5017016;28;20034;-74
2022/09/17 04:57:44;;;;;;;12.27;2.30;;;11.00;99.90;;;;;;5021320;28;20056;-74
2022/09/17 05:00:10;;;;;;;10.32;2.25;;;11.00;99.90;;;;;;4998066;28;20500;-73
2022/09/17 05:02:36;;;;;;;10.60;2.30;;;11.10;99.90;;;;;;5004455;28;20038;-73
2022/09/17 05:05:02;;;;;;;12.70;2.58;;;11.10;99.90;;;;;;4996421;28;20096;-73
2022/09/17 05:07:27;;;;;;;11.10;2.38;;;11.10;99.90;;;;;;5010716;28;20058;-73
2022/09/17 05:09:53;;;;;;;14.52;2.83;;;11.00;99.90;;;;;;5003382;28;20065;-72
2022/09/17 05:12:19;;;;;;;10.80;2.20;;;11.00;99.90;;;;;;5019190;28;20325;-73
2022/09/17 05:14:45;;;;;;;10.57;2.13;;;11.00;99.90;;;;;;5011912;28;20044;-72
2022/09/17 05:17:10;;;;;;;10.05;2.20;;;11.00;99.90;;;;;;5012240;28;20531;-72
2022/09/17 05:19:36;;;;;;;14.02;2.33;;;11.00;99.90;;;;;;4998357;28;20061;-73
2022/09/17 05:22:02;;;;;;;19.50;3.13;;;11.00;99.90;;;;;;5007308;28;20041;-73
2022/09/17 05:24:28;;;;;;;15.15;2.75;;;11.00;99.90;;;;;;5029426;28;20043;-73
2022/09/17 05:26:54;;;;;;;11.52;2.45;;;11.10;99.90;;;;;;5025727;28;20124;-73
2022/09/17 05:29:20;;;;;;;11.15;2.78;;;11.00;99.90;;;;;;5026416;28;20033;-73
2022/09/17 05:31:45;;;;;;;11.20;2.50;;;11.10;99.90;;;;;;5010299;28;20045;-73
2022/09/17 05:34:11;;;;;;;12.43;2.40;;;11.10;99.90;;;;;;5009089;28;20409;-73
2022/09/17 05:36:37;;;;;;;11.98;2.53;;;11.10;99.90;;;;;;5023080;28;20037;-74
2022/09/17 05:39:03;;;;;;;10.23;2.63;;;11.20;99.90;;;;;;5023575;28;20056;-73
2022/09/17 05:41:28;;;;;;;13.15;2.63;;;11.30;99.90;;;;;;5027257;28;20487;-74
2022/09/17 05:43:54;;;;;;;11.43;2.78;;;11.40;99.90;;;;;;5024801;28;20038;-72
2022/09/17 05:46:20;;;;;;;12.77;2.80;;;11.40;99.90;;;;;;5026269;28;20041;-73
2022/09/17 05:48:46;;;;;;;13.07;2.30;;;11.50;99.90;;;;;;5010896;28;20491;-73
2022/09/17 05:51:11;;;;;;;16.02;2.67;;;11.60;99.90;;;;;;5008741;28;20376;-72
2022/09/17 05:53:37;;;;;;;11.82;2.38;;;11.70;99.90;;;;;;5021675;28;20092;-73
2022/09/17 05:56:03;;;;;;;14.20;2.80;;;11.80;99.90;;;;;;5026905;28;20504;-73
2022/09/17 05:58:31;;;;;;;13.02;2.63;;;11.90;99.90;;;;;;5025907;28;20110;-73
2022/09/17 06:01:00;;;;;;;11.93;2.45;;;12.00;99.90;;;;;;5030710;28;20041;-74
2022/09/17 06:03:26;;;;;;;13.77;2.75;;;12.10;99.90;;;;;;5024123;28;20041;-72
2022/09/17 06:05:59;;;;;;;13.13;2.53;;;12.20;99.90;;;;;;5027123;28;20068;-72
2022/09/17 06:08:26;;;;;;;12.30;3.13;;;12.20;99.90;;;;;;5013429;28;20041;-73
2022/09/17 06:10:52;;;;;;;12.35;2.38;;;12.40;99.90;;;;;;5012750;28;20045;-72
2022/09/17 06:13:19;;;;;;;11.52;2.80;;;12.50;99.90;;;;;;5013883;28;20119;-73
2022/09/17 06:15:52;;;;;;;9.00;2.00;;;12.50;99.90;;;;;;5014309;28;20048;-72
2022/09/17 06:18:19;;;;;;;12.95;2.60;;;12.40;99.90;;;;;;5023472;28;20052;-72
2022/09/17 06:20:52;;;;;;;11.07;2.53;;;12.60;99.90;;;;;;5015889;28;20100;-73
2022/09/17 06:23:18;;;;;;;12.60;2.33;;;12.10;99.90;;;;;;5016464;28;20049;-72
2022/09/17 06:25:53;;;;;;;13.88;2.70;;;12.00;99.90;;;;;;5000211;28;20049;-72
2022/09/17 06:28:19;;;;;;;12.05;2.65;;;11.60;99.90;;;;;;5020712;28;20389;-72
2022/09/17 06:30:44;;;;;;;14.32;2.72;;;11.80;99.90;;;;;;5014336;28;20037;-72
2022/09/17 06:33:10;;;;;;;12.13;2.53;;;11.80;99.90;;;;;;4977246;28;20042;-73
2022/09/17 06:35:36;;;;;;;11.88;2.55;;;11.70;99.90;;;;;;5022867;28;20052;-74
2022/09/17 06:38:04;;;;;;;12.05;2.33;;;11.70;99.90;;;;;;5015036;28;20056;-73
2022/09/17 06:40:30;;;;;;;10.65;2.00;;;11.80;99.90;;;;;;5017033;28;20044;-73
2022/09/17 06:42:58;;;;;;;14.35;3.20;;;11.80;99.90;;;;;;5045854;28;20038;-72
2022/09/17 06:45:24;;;;;;;10.45;2.55;;;11.80;99.90;;;;;;5022068;28;20029;-72
2022/09/17 06:47:50;;;;;;;11.57;2.28;;;11.90;99.90;;;;;;5016495;28;20041;-72
2022/09/17 06:50:16;;;;;;;11.68;2.20;;;11.90;99.90;;;;;;5003493;28;20096;-72
2022/09/17 06:52:49;;;;;;;10.02;1.85;;;12.10;99.90;;;;;;5001749;28;20065;-72
2022/09/17 06:55:15;;;;;;;;;;;12.10;99.90;;;;;;5015049;28;20512;-71
2022/09/17 06:57:40;;;;;;;10.63;2.20;;;12.20;99.90;;;;;;5017871;28;19956;-72
2022/09/17 07:00:11;;;;;;;8.63;2.42;;;12.20;99.90;;;;;;5006332;28;20488;-72
2022/09/17 07:02:37;;;;;;;9.25;2.00;;;12.20;99.90;;;;;;5016052;28;20044;-72
2022/09/17 07:05:03;;;;;;;11.07;2.47;;;12.20;99.90;;;;;;5018681;28;20488;-72
2022/09/17 07:07:28;;;;;;;11.85;2.45;;;12.20;99.90;;;;;;4999799;28;20049;-72
2022/09/17 07:09:57;;;;;;;9.20;2.35;;;12.20;99.90;;;;;;4996975;28;20043;-72
2022/09/17 07:12:23;;;;;;;9.07;1.95;;;12.30;99.90;;;;;;5020527;28;20045;-72
2022/09/17 07:14:48;;;;;;;10.27;2.22;;;12.50;99.90;;;;;;5023568;28;20037;-71
2022/09/17 07:17:15;;;;;;;13.60;2.40;;;12.60;99.90;;;;;;4996354;28;20044;-72
2022/09/17 07:19:41;;;;;;;13.68;2.70;;;12.80;99.90;;;;;;5004411;28;20448;-72
2022/09/17 07:22:09;;;;;;;15.55;2.80;;;12.80;99.90;;;;;;5001938;28;20030;-72
2022/09/17 07:24:35;;;;;;;10.27;2.20;;;12.80;99.90;;;;;;5014036;28;20357;-74
2022/09/17 07:27:01;;;;;;;12.27;2.50;;;12.60;99.90;;;;;;4997305;28;20507;-73
2022/09/17 07:29:27;;;;;;;11.35;2.38;;;12.30;99.90;;;;;;5018770;28;20500;-74
2022/09/17 07:31:53;;;;;;;14.50;2.70;;;12.20;99.90;;;;;;5021165;28;20037;-73
2022/09/17 07:34:20;;;;;;;11.18;2.58;;;12.00;99.90;;;;;;4994256;28;20081;-73
2022/09/17 07:36:45;;;;;;;16.23;2.75;;;11.90;99.90;;;;;;5003020;28;20133;-72
2022/09/17 07:39:12;;;;;;;11.63;2.60;;;11.90;99.90;;;;;;5018638;28;20061;-73
2022/09/17 07:41:38;;;;;;;11.20;2.38;;;12.10;99.90;;;;;;5017767;28;20080;-73
2022/09/17 07:44:08;;;;;;;10.38;2.13;;;12.30;99.90;;;;;;5014725;28;20116;-72
2022/09/17 07:46:34;;;;;;;13.32;2.40;;;12.40;99.90;;;;;;5016851;28;20057;-73
2022/09/17 07:49:00;;;;;;;12.15;2.65;;;13.30;99.90;;;;;;5022843;28;20038;-73
2022/09/17 07:51:27;;;;;;;14.60;3.25;;;12.80;99.90;;;;;;5022665;28;20041;-73
2022/09/17 07:53:54;;;;;;;10.68;2.25;;;13.00;99.90;;;;;;5007865;28;20144;-73
2022/09/17 07:56:21;;;;;;;10.18;2.35;;;13.30;99.90;;;;;;4990634;28;20140;-73
2022/09/17 07:58:47;;;;;;;7.93;1.90;;;13.20;99.90;;;;;;5018924;28;20135;-73
2022/09/17 08:01:17;;;;;;;13.60;1.77;;;13.10;99.90;;;;;;5018076;28;20049;-72
2022/09/17 08:03:48;;;;;;;7.72;1.55;;;12.80;99.90;;;;;;5021455;28;20128;-73
2022/09/17 08:06:16;;;;;;;10.90;1.98;;;12.70;99.90;;;;;;5007089;28;20045;-73
2022/09/17 08:08:42;;;;;;;9.73;2.20;;;12.50;99.90;;;;;;5018964;28;20033;-73
2022/09/17 08:11:17;;;;;;;9.57;2.22;;;12.40;99.90;;;;;;5011412;28;20065;-72
2022/09/17 08:13:46;;;;;;;9.73;1.92;;;12.60;99.90;;;;;;5016655;28;20484;-73
2022/09/17 08:16:12;;;;;;;13.48;2.35;;;12.70;99.90;;;;;;5021629;28;20042;-73
2022/09/17 08:18:38;;;;;;;12.35;1.85;;;12.90;99.90;;;;;;5018348;28;20518;-73
2022/09/17 08:21:06;;;;;;;8.48;1.92;;;13.00;99.90;;;;;;5013827;28;20120;-72
2022/09/17 08:23:35;;;;;;;11.50;2.08;;;13.10;99.90;;;;;;5021770;28;20037;-73
2022/09/17 08:26:07;;;;;;;10.07;2.15;;;13.20;99.90;;;;;;5012288;28;20041;-73
2022/09/17 08:28:34;;;;;;;7.97;1.77;;;13.40;99.90;;;;;;5012809;28;20049;-72
2022/09/17 08:31:02;;;;;;;9.20;2.30;;;13.40;99.90;;;;;;5013588;28;20050;-72
2022/09/17 08:33:36;;;;;;;13.35;2.13;;;13.40;99.90;;;;;;4999962;28;20049;-72
2022/09/17 08:36:02;;;;;;;12.45;2.13;;;13.30;99.90;;;;;;5009858;28;20046;-73
2022/09/17 08:38:33;;;;;;;11.15;2.05;;;13.40;99.90;;;;;;5017828;28;20124;-72
2022/09/17 08:41:11;;;;;;;10.07;2.33;;;13.60;99.90;;;;;;4992330;28;20547;-72
2022/09/17 08:43:55;;;;;;;13.75;2.53;;;13.70;99.90;;;;;;5002526;28;20143;-73
2022/09/17 08:46:22;;;;;;;12.57;2.67;;;13.80;99.90;;;;;;5014141;28;20038;-73
2022/09/17 08:49:21;;;;;;;10.82;2.40;;;14.00;99.90;;;;;;4986161;28;20223;-72
2022/09/17 08:51:53;;;;;;;11.27;2.55;;;14.10;99.90;;;;;;4987732;28;20400;-72
2022/09/17 08:54:32;;;;;;;14.90;2.60;;;14.30;99.90;;;;;;5009307;28;20045;-72
2022/09/17 08:57:28;;;;;;;11.45;2.42;;;14.20;99.90;;;;;;5021422;28;20381;-73
2022/09/17 09:00:15;;;;;;;10.50;2.30;;;14.10;99.90;;;;;;5014402;28;20041;-72
2022/09/17 09:02:56;;;;;;;10.82;2.38;;;13.80;99.90;;;;;;5015121;28;20076;-71
2022/09/17 09:05:29;;;;;;;14.13;2.38;;;13.50;99.90;;;;;;5013231;28;20042;-71
2022/09/17 09:08:02;;;;;;;10.25;1.90;;;13.20;99.90;;;;;;5014630;28;20053;-71
2022/09/17 09:10:36;;;;;;;;;;;12.10;99.90;;;;;;5034507;28;20121;-72
2022/09/17 09:13:04;;;;;;;10.50;1.80;;;12.80;99.90;;;;;;4995285;28;20368;-72
2022/09/17 09:15:32;;;;;;;6.85;1.50;;;12.80;99.90;;;;;;5017759;28;20366;-72
2022/09/17 09:18:08;;;;;;;6.53;1.50;;;12.80;99.90;;;;;;5000403;28;20034;-71
2022/09/17 09:20:50;;;;;;;10.00;1.70;;;12.90;99.90;;;;;;5021440;28;20033;-71
2022/09/17 09:23:46;;;;;;;6.45;1.45;;;13.10;99.90;;;;;;5004626;28;20080;-71
2022/09/17 09:26:18;;;;;;;5.93;1.48;;;13.30;99.90;;;;;;5023379;28;20037;-71
2022/09/17 09:28:47;;;;;;;8.30;1.95;;;13.40;99.90;;;;;;5014018;28;20419;-71
2022/09/17 09:31:24;;;;;;;8.93;1.75;;;13.40;99.90;;;;;;5031585;28;20592;-72
2022/09/17 09:33:50;;;;;;;10.68;2.00;;;13.60;99.90;;;;;;5022876;28;20041;-72
2022/09/17 09:36:20;;;;;;;11.32;2.25;;;13.60;99.90;;;;;;5012907;28;20099;-72
2022/09/17 09:38:55;;;;;;;9.23;2.00;;;13.60;99.90;;;;;;5022246;28;20415;-72
2022/09/17 09:41:35;;;;;;;10.93;2.20;;;13.50;99.90;;;;;;5031095;28;20049;-71
2022/09/17 09:44:10;;;;;;;8.95;1.75;;;13.30;99.90;;;;;;5028566;28;20046;-71
2022/09/17 09:47:06;;;;;;;10.23;1.92;;;13.10;99.90;;;;;;5030457;28;20033;-71
2022/09/17 09:49:52;;;;;;;7.40;1.65;;;12.40;99.90;;;;;;5028654;28;20041;-71
2022/09/17 09:52:39;;;;;;;10.10;1.98;;;12.70;99.90;;;;;;5025676;28;20052;-72
2022/09/17 09:55:20;;;;;;;8.35;1.60;;;12.60;99.90;;;;;;5014480;28;20488;-72
2022/09/17 09:57:49;;;;;;;6.82;1.50;;;12.40;99.90;;;;;;5030962;28;20107;-72
2022/09/17 10:00:28;;;;;;;11.07;2.50;;;12.20;99.90;;;;;;5032612;28;20049;-71
2022/09/17 10:03:08;;;;;;;12.77;2.28;;;12.10;99.90;;;;;;5032728;28;20515;-71
2022/09/17 10:05:34;;;;;;;8.82;2.00;;;12.40;99.90;;;;;;5026069;28;20041;-72
2022/09/17 10:08:11;;;;;;;10.20;1.85;;;12.70;99.90;;;;;;5025988;28;20040;-71
2022/09/17 10:10:53;;;;;;;9.65;1.73;;;12.80;99.90;;;;;;5031191;28;20518;-71
2022/09/17 10:13:19;;;;;;;13.75;2.17;;;12.80;99.90;;;;;;5031219;28;20034;-72
2022/09/17 10:15:45;;;;;;;10.98;2.60;;;12.90;99.90;;;;;;5013539;28;20365;-71
2022/09/17 10:18:18;;;;;;;11.10;1.98;;;12.90;99.90;;;;;;5003126;28;20056;-72
2022/09/17 10:20:59;;;;;;;12.02;2.42;;;13.20;99.90;;;;;;5024434;28;20049;-72
2022/09/17 10:23:32;;;;;;;14.07;2.22;;;12.60;99.90;;;;;;5014650;28;20492;-71
2022/09/17 10:25:59;;;;;;;13.95;2.45;;;13.50;99.90;;;;;;5027182;28;20091;-72
2022/09/17 10:28:33;;;;;;;15.30;2.75;;;13.40;99.90;;;;;;4998453;28;20490;-72
2022/09/17 10:31:05;;;;;;;12.95;2.47;;;13.30;99.90;;;;;;5025340;28;20042;-71
2022/09/17 10:33:32;;;;;;;14.23;2.97;;;13.30;99.90;;;;;;5014340;28;20103;-72
2022/09/17 10:36:05;;;;;;;10.10;2.80;;;13.40;99.90;;;;;;5030490;28;20404;-72
2022/09/17 10:38:48;;;;;;;11.20;2.35;;;13.70;99.90;;;;;;5028549;28;20523;-72
2022/09/17 10:41:21;;;;;;;11.30;2.40;;;13.70;99.90;;;;;;5014006;28;20056;-72
2022/09/17 10:43:48;;;;;;;18.40;2.92;;;13.70;99.90;;;;;;5030687;28;20048;-71
2022/09/17 10:46:25;;;;;;;13.82;2.90;;;13.90;99.90;;;;;;5029425;28;20045;-71
2022/09/17 10:49:19;;;;;;;13.50;2.97;;;14.10;99.90;;;;;;5026969;28;20041;-71
2022/09/17 10:51:44;;;;;;;9.77;2.33;;;14.30;99.90;;;;;;5020391;28;20527;-71
2022/09/17 10:54:58;;;;;;;14.45;2.65;;;14.40;99.90;;;;;;5024107;28;20037;-72
2022/09/17 10:57:41;;;;;;;14.75;2.70;;;14.50;99.90;;;;;;5021348;28;20111;-71
2022/09/17 11:00:07;;;;;;;12.50;2.70;;;14.70;99.90;;;;;;5017204;28;20034;-71
2022/09/17 11:03:05;;;;;;;12.82;2.45;;;14.80;99.90;;;;;;5016403;28;20496;-72
2022/09/17 11:05:45;;;;;;;10.43;2.35;;;15.00;99.90;;;;;;5014327;28;20113;-72
2022/09/17 11:08:33;;;;;;;13.10;2.20;;;14.80;99.90;;;;;;5011024;28;20053;-72
2022/09/17 11:11:02;;;;;;;14.35;2.50;;;14.80;99.90;;;;;;5016613;28;20049;-72
2022/09/17 11:13:42;;;;;;;13.63;2.83;;;14.90;99.90;;;;;;5019184;28;20056;-71
2022/09/17 11:16:16;;;;;;;12.50;2.67;;;15.00;99.90;;;;;;5013930;28;20034;-70
2022/09/17 11:18:47;;;;;;;10.38;2.20;;;15.10;99.90;;;;;;4990409;28;20046;-71
2022/09/17 11:21:31;;;;;;;11.00;2.55;;;15.20;99.90;;;;;;5022859;28;20087;-71
2022/09/17 11:24:32;;;;;;;13.82;2.20;;;15.30;99.90;;;;;;5011259;28;20065;-72
2022/09/17 11:27:13;;;;;;;12.30;2.45;;;15.40;99.90;;;;;;4981031;28;20081;-72
2022/09/17 11:30:08;;;;;;;13.10;2.63;;;15.50;99.90;;;;;;5011224;28;20038;-72
2022/09/17 11:32:49;;;;;;;10.02;2.00;;;15.60;99.90;;;;;;5012401;28;20030;-72
2022/09/17 11:35:30;;;;;;;13.05;2.60;;;15.70;99.90;;;;;;5020399;28;20049;-73
2022/09/17 11:38:19;;;;;;;13.98;2.53;;;15.80;99.90;;;;;;5008750;28;20076;-72
2022/09/17 11:40:54;;;;;;;10.95;2.55;;;16.00;99.90;;;;;;4987989;28;20121;-73
2022/09/17 11:43:25;;;;;;;13.07;2.70;;;16.10;99.90;;;;;;5008734;28;20183;-71
2022/09/17 11:45:56;;;;;;;12.15;2.35;;;16.10;99.90;;;;;;4991072;28;20054;-73
2022/09/17 11:48:43;;;;;;;10.63;2.20;;;16.00;99.90;;;;;;4990710;28;20041;-73
2022/09/17 11:51:25;;;;;;;12.88;2.33;;;15.90;99.90;;;;;;5014009;28;20041;-72
2022/09/17 11:54:07;;;;;;;12.43;2.22;;;16.10;99.90;;;;;;5018898;28;20057;-72
2022/09/17 11:56:57;;;;;;;13.82;2.28;;;16.10;99.90;;;;;;4992270;28;20057;-71
2022/09/17 11:59:35;;;;;;;13.93;2.58;;;16.40;99.90;;;;;;5015110;28;20136;-71
2022/09/17 12:02:30;;;;;;;13.98;2.40;;;16.40;99.90;;;;;;5013156;28;20459;-71
2022/09/17 12:05:16;;;;;;;14.73;2.65;;;16.30;99.90;;;;;;5015077;28;20717;-71
2022/09/17 12:08:10;;;;;;;13.05;2.75;;;15.90;99.90;;;;;;5021551;28;20044;-72
2022/09/17 12:10:51;;;;;;;11.98;2.92;;;15.50;99.90;;;;;;5016967;28;20088;-72
2022/09/17 12:13:36;;;;;;;12.90;2.80;;;15.30;99.90;;;;;;5010545;28;20038;-71
2022/09/17 12:16:29;;;;;;;13.18;2.30;;;15.20;99.90;;;;;;5016070;28;20626;-71
2022/09/17 12:18:57;;;;;;;11.02;2.20;;;15.40;99.90;;;;;;5011874;28;20045;-71
2022/09/17 12:21:45;;;;;;;16.45;2.35;;;15.60;99.90;;;;;;5002483;28;20497;-71
2022/09/17 12:24:14;;;;;;;11.75;2.72;;;15.70;99.90;;;;;;5002615;28;20053;-72
2022/09/17 12:27:02;;;;;;;14.32;2.83;;;15.80;99.90;;;;;;4996370;28;20492;-71
2022/09/17 12:29:39;;;;;;;14.50;3.00;;;15.70;99.90;;;;;;5007998;28;20108;-71
2022/09/17 12:32:35;;;;;;;10.75;2.70;;;15.40;99.90;;;;;;5008920;28;20038;-71
2022/09/17 12:35:35;;;;;;;11.23;2.30;;;15.30;99.90;;;;;;5015579;28;20045;-72
2022/09/17 12:38:25;;;;;;;8.45;1.98;;;15.00;99.90;;;;;;5021831;28;20036;-73
2022/09/17 12:41:18;;;;;;;8.85;1.80;;;15.00;99.90;;;;;;5015662;28;20126;-72
2022/09/17 12:44:21;;;;;;;9.52;1.60;;;15.00;99.90;;;;;;5020143;28;20037;-72
2022/09/17 12:47:17;;;;;;;9.18;1.80;;;15.00;99.90;;;;;;5023020;28;20034;-74
2022/09/17 12:50:11;;;;;;;10.85;2.25;;;14.80;99.90;;;;;;5018709;28;20108;-73
2022/09/17 12:53:06;;;;;;;9.88;1.70;;;14.70;99.90;;;;;;5009076;28;20401;-73
2022/09/17 12:55:39;;;;;;;11.95;2.97;;;14.60;99.90;;;;;;4992959;28;20508;-72
2022/09/17 12:58:20;;;;;;;10.60;2.60;;;14.70;99.90;;;;;;5018026;28;20400;-72
2022/09/17 13:01:21;;;;;;;9.13;1.88;;;14.80;99.90;;;;;;5002798;28;20592;-72
2022/09/17 13:04:01;;;;;;;13.60;2.53;;;15.00;99.90;;;;;;5019968;28;20049;-72
2022/09/17 13:06:55;;;;;;;9.98;2.10;;;14.90;99.90;;;;;;5024292;28;20056;-73
2022/09/17 13:10:02;;;;;;;11.15;2.15;;;15.00;99.90;;;;;;5055839;28;20069;-72